createdAt,value
2018-10-12T00:00:47.500Z,64.46
2018-10-12T00:03:15.188Z,64.13
2018-10-12T00:05:43.184Z,64.82
2018-10-12T00:08:10.806Z,64.50
2018-10-12T00:10:38.484Z,64.25
2018-10-12T00:13:06.121Z,64.76
2018-10-12T00:15:33.770Z,64.45
2018-10-12T00:18:01.402Z,64.35
2018-10-12T00:20:29.261Z,65.10
2018-10-12T00:22:56.916Z,64.27
2018-10-12T00:25:24.576Z,65.09
2018-10-12T00:27:52.208Z,64.26
2018-10-12T00:30:19.923Z,65.10
2018-10-12T00:32:47.583Z,64.57
2018-10-12T00:35:15.195Z,64.50
2018-10-12T00:37:43.090Z,65.37
2018-10-12T00:40:10.776Z,65.22
2018-10-12T00:42:38.413Z,64.48
2018-10-12T00:45:06.074Z,64.98
2018-10-12T00:47:33.767Z,64.67
2018-10-12T00:50:01.590Z,64.22
2018-10-12T00:52:29.300Z,64.13
2018-10-12T00:54:57.145Z,64.71
2018-10-12T00:57:24.917Z,63.93
2018-10-12T00:59:52.661Z,64.12
2018-10-12T01:02:20.312Z,63.86
2018-10-12T01:04:47.968Z,64.59
2018-10-12T01:07:15.600Z,63.92
2018-10-12T01:09:43.271Z,63.78
2018-10-12T01:12:47.636Z,64.43
2018-10-12T01:15:15.333Z,63.86
2018-10-12T01:17:42.957Z,64.00
2018-10-12T01:20:10.692Z,63.98
2018-10-12T01:22:38.376Z,64.65
2018-10-12T01:25:06.839Z,64.60
2018-10-12T01:27:34.550Z,64.23
2018-10-12T01:30:02.998Z,64.42
2018-10-12T01:32:36.235Z,64.23
2018-10-12T01:35:03.872Z,64.01
2018-10-12T01:37:31.455Z,63.89
2018-10-12T01:39:59.068Z,64.27
2018-10-12T01:42:26.664Z,64.59
2018-10-12T01:44:54.295Z,64.01
2018-10-12T01:47:21.967Z,64.69
2018-10-12T01:49:49.647Z,63.98
2018-10-12T01:52:17.279Z,64.19
2018-10-12T01:54:44.892Z,64.59
2018-10-12T01:57:13.051Z,63.99
2018-10-12T01:59:40.665Z,64.23
2018-10-12T02:02:08.321Z,63.92
2018-10-12T02:04:35.921Z,64.51
2018-10-12T02:07:04.227Z,64.30
2018-10-12T02:09:31.820Z,64.00
2018-10-12T02:11:59.574Z,64.31
2018-10-12T02:14:27.686Z,64.42
2018-10-12T02:16:55.295Z,64.31
2018-10-12T02:19:22.989Z,65.02
2018-10-12T02:21:50.620Z,65.04
2018-10-12T02:24:18.210Z,64.62
2018-10-12T02:26:45.818Z,65.09
2018-10-12T02:29:13.471Z,65.21
2018-10-12T02:31:41.607Z,64.78
2018-10-12T02:34:09.252Z,64.59
2018-10-12T02:36:37.268Z,64.80
2018-10-12T02:39:07.805Z,64.85
2018-10-12T02:41:35.435Z,65.62
2018-10-12T02:44:03.113Z,65.39
2018-10-12T02:46:30.739Z,64.81
2018-10-12T02:48:58.380Z,65.55
2018-10-12T02:51:26.032Z,64.83
2018-10-12T02:53:53.679Z,64.90
2018-10-12T02:56:22.546Z,64.84
2018-10-12T02:58:51.203Z,65.17
2018-10-12T03:01:19.570Z,65.85
2018-10-12T03:03:47.200Z,65.83
2018-10-12T03:06:15.242Z,66.31
2018-10-12T03:08:42.882Z,65.48
2018-10-12T03:11:10.615Z,66.41
2018-10-12T03:13:38.583Z,65.69
2018-10-12T03:16:06.277Z,65.64
2018-10-12T03:18:34.015Z,66.06
2018-10-12T03:21:01.643Z,65.68
2018-10-12T03:23:29.394Z,66.17
2018-10-12T03:25:57.096Z,66.20
2018-10-12T03:28:32.963Z,65.57
2018-10-12T03:31:01.232Z,65.71
2018-10-12T03:33:29.319Z,65.92
2018-10-12T03:35:57.537Z,66.08
2018-10-12T03:38:25.126Z,65.69
2018-10-12T03:40:52.696Z,66.15
2018-10-12T03:43:20.319Z,65.62
2018-10-12T03:45:47.962Z,65.65
2018-10-12T03:48:15.564Z,65.52
2018-10-12T03:50:43.233Z,66.26
2018-10-12T03:53:11.434Z,66.35
2018-10-12T03:55:39.383Z,66.27
2018-10-12T03:58:07.290Z,65.92
2018-10-12T04:00:34.935Z,66.41
2018-10-12T04:03:02.591Z,66.36
2018-10-12T04:05:30.224Z,65.80
2018-10-12T04:07:57.871Z,65.69
2018-10-12T04:10:25.632Z,66.38
2018-10-12T04:12:53.493Z,65.92
2018-10-12T04:15:21.115Z,65.94
2018-10-12T04:17:48.834Z,66.83
2018-10-12T04:20:16.409Z,66.72
2018-10-12T04:22:44.042Z,65.97
2018-10-12T04:25:11.685Z,67.08
2018-10-12T04:27:39.283Z,66.82
2018-10-12T04:30:07.124Z,66.88
2018-10-12T04:32:34.792Z,66.62
2018-10-12T04:35:02.419Z,66.31
2018-10-12T04:37:29.996Z,66.12
2018-10-12T04:40:04.607Z,66.01
2018-10-12T04:42:32.282Z,67.04
2018-10-12T04:45:00.409Z,66.05
2018-10-12T04:47:30.194Z,65.89
2018-10-12T04:49:59.312Z,65.90
2018-10-12T04:52:28.490Z,66.01
2018-10-12T04:54:56.331Z,65.32
2018-10-12T04:57:23.983Z,65.20
2018-10-12T04:59:51.659Z,65.60
2018-10-12T05:02:19.578Z,65.59
2018-10-12T05:04:47.215Z,65.91
2018-10-12T05:07:14.877Z,65.88
2018-10-12T05:09:42.504Z,65.79
2018-10-12T05:12:10.175Z,65.91
2018-10-12T05:14:37.835Z,64.98
2018-10-12T05:17:05.568Z,65.46
2018-10-12T05:19:33.192Z,65.18
2018-10-12T05:22:00.877Z,64.97
2018-10-12T05:24:28.614Z,65.49
2018-10-12T05:26:56.232Z,65.83
2018-10-12T05:29:23.987Z,65.33
2018-10-12T05:31:51.628Z,65.19
2018-10-12T05:34:19.309Z,65.08
2018-10-12T05:36:46.984Z,65.03
2018-10-12T05:39:15.136Z,65.69
2018-10-12T05:41:42.982Z,65.11
2018-10-12T05:44:10.635Z,65.69
2018-10-12T05:46:38.530Z,64.95
2018-10-12T05:49:17.508Z,65.21
2018-10-12T05:51:45.172Z,65.78
2018-10-12T05:54:13.232Z,65.08
2018-10-12T05:56:41.731Z,65.76
2018-10-12T05:59:09.358Z,65.67
2018-10-12T06:01:37.058Z,64.96
2018-10-12T06:04:05.283Z,65.46
2018-10-12T06:06:32.919Z,65.46
2018-10-12T06:09:00.539Z,64.68
2018-10-12T06:11:28.263Z,64.76
2018-10-12T06:13:55.869Z,65.07
2018-10-12T06:16:23.595Z,64.53
2018-10-12T06:18:51.273Z,64.92
2018-10-12T06:21:18.832Z,64.14
2018-10-12T06:23:46.443Z,64.63
2018-10-12T06:26:14.610Z,63.96
2018-10-12T06:28:42.344Z,64.48
2018-10-12T06:31:10.643Z,64.45
2018-10-12T06:33:38.298Z,64.26
2018-10-12T06:36:06.017Z,64.33
2018-10-12T06:38:33.765Z,64.28
2018-10-12T06:41:01.553Z,63.50
2018-10-12T06:43:29.091Z,63.83
2018-10-12T06:45:56.743Z,63.55
2018-10-12T06:48:24.425Z,63.41
2018-10-12T06:50:52.090Z,63.32
2018-10-12T06:53:19.732Z,63.98
2018-10-12T06:55:47.357Z,63.49
2018-10-12T06:58:14.980Z,63.91
2018-10-12T07:00:42.781Z,63.19
2018-10-12T07:03:10.388Z,63.25
2018-10-12T07:05:38.120Z,63.14
2018-10-12T07:08:05.832Z,63.63
2018-10-12T07:10:33.556Z,63.57
2018-10-12T07:13:01.286Z,62.89
2018-10-12T07:15:28.845Z,62.77
2018-10-12T07:17:56.573Z,62.85
2018-10-12T07:20:24.254Z,63.36
2018-10-12T07:22:51.867Z,62.75
2018-10-12T07:25:19.544Z,62.70
2018-10-12T07:27:47.591Z,63.33
2018-10-12T07:30:15.198Z,63.00
2018-10-12T07:32:42.846Z,63.16
2018-10-12T07:35:10.528Z,63.14
2018-10-12T07:37:39.006Z,62.39
2018-10-12T07:40:08.707Z,62.33
2018-10-12T07:42:36.395Z,62.27
2018-10-12T07:45:04.020Z,62.21
2018-10-12T07:47:31.847Z,62.06
2018-10-12T07:49:59.503Z,62.20
2018-10-12T07:52:27.106Z,62.54
2018-10-12T07:54:54.785Z,61.92
2018-10-12T07:57:26.874Z,62.31
2018-10-12T07:59:54.524Z,62.30
2018-10-12T08:02:22.219Z,62.21
2018-10-12T08:04:49.906Z,62.16
2018-10-12T08:07:17.533Z,61.98
2018-10-12T08:09:46.143Z,61.83
2018-10-12T08:12:13.784Z,61.22
2018-10-12T08:14:54.739Z,61.85
2018-10-12T08:17:22.841Z,61.67
2018-10-12T08:19:50.889Z,61.08
2018-10-12T08:22:18.573Z,61.77
2018-10-12T08:24:46.213Z,61.53
2018-10-12T08:27:13.889Z,60.79
2018-10-12T08:29:41.552Z,60.77
2018-10-12T08:32:09.352Z,61.34
2018-10-12T08:34:37.029Z,61.16
2018-10-12T08:37:04.675Z,61.17
2018-10-12T08:39:32.380Z,61.20
2018-10-12T08:42:00.014Z,60.40
2018-10-12T08:44:27.830Z,60.31
2018-10-12T08:46:55.441Z,60.48
2018-10-12T08:49:23.029Z,60.13
2018-10-12T08:51:50.624Z,60.72
2018-10-12T08:54:18.212Z,60.08
2018-10-12T08:56:45.920Z,59.92
2018-10-12T08:59:13.572Z,60.27
2018-10-12T09:01:41.241Z,60.47
2018-10-12T09:04:08.881Z,59.79
2018-10-12T09:06:36.577Z,60.42
2018-10-12T09:09:07.140Z,59.84
2018-10-12T09:11:34.771Z,60.19
2018-10-12T09:14:02.472Z,59.48
2018-10-12T09:16:30.178Z,60.15
2018-10-12T09:18:57.781Z,59.67
2018-10-12T09:21:25.429Z,59.35
2018-10-12T09:23:53.051Z,59.99
2018-10-12T09:26:20.645Z,59.57
2018-10-12T09:28:48.363Z,59.13
2018-10-12T09:31:15.999Z,59.83
2018-10-12T09:33:43.583Z,59.74
2018-10-12T09:36:11.250Z,59.24
2018-10-12T09:38:38.845Z,58.86
2018-10-12T09:41:06.480Z,58.95
2018-10-12T09:43:34.111Z,58.93
2018-10-12T09:46:01.765Z,58.88
2018-10-12T09:48:29.388Z,58.71
2018-10-12T09:50:57.039Z,58.77
2018-10-12T09:53:24.724Z,59.36
2018-10-12T09:55:52.365Z,58.90
2018-10-12T09:58:20.079Z,59.19
2018-10-12T10:00:53.322Z,59.10
2018-10-12T10:05:28.582Z,59.00
2018-10-12T10:07:56.297Z,58.96
2018-10-12T10:10:23.923Z,58.74
2018-10-12T10:12:51.449Z,58.77
2018-10-12T10:15:19.172Z,58.68
2018-10-12T10:17:46.797Z,58.89
2018-10-12T10:20:14.453Z,58.69
2018-10-12T10:22:42.176Z,58.75
2018-10-12T10:25:09.914Z,58.68
2018-10-12T10:27:37.480Z,58.71
2018-10-12T10:30:05.345Z,58.63
2018-10-12T10:32:32.830Z,58.01
2018-10-12T10:35:00.442Z,58.28
2018-10-12T10:37:28.144Z,58.41
2018-10-12T10:39:55.725Z,58.37
2018-10-12T10:42:23.341Z,58.31
2018-10-12T10:44:51.054Z,58.35
2018-10-12T10:47:18.624Z,57.75
2018-10-12T10:49:46.248Z,57.80
2018-10-12T10:52:13.905Z,57.68
2018-10-12T10:54:41.602Z,57.41
2018-10-12T10:57:09.251Z,58.22
2018-10-12T10:59:36.831Z,58.05
2018-10-12T11:02:04.514Z,57.40
2018-10-12T11:04:32.744Z,57.38
2018-10-12T11:07:01.406Z,57.36
2018-10-12T11:09:29.122Z,57.31
2018-10-12T11:11:56.843Z,57.31
2018-10-12T11:14:24.511Z,57.09
2018-10-12T11:16:52.213Z,57.48
2018-10-12T11:19:19.961Z,57.19
2018-10-12T11:21:47.688Z,57.02
2018-10-12T11:24:15.321Z,57.71
2018-10-12T11:26:42.996Z,57.08
2018-10-12T11:29:10.664Z,57.66
2018-10-12T11:31:38.248Z,57.56
2018-10-12T11:34:06.068Z,57.42
2018-10-12T11:36:33.716Z,56.80
2018-10-12T11:39:01.356Z,57.23
2018-10-12T11:41:29.032Z,57.46
2018-10-12T11:43:56.587Z,57.51
2018-10-12T11:46:24.185Z,57.13
2018-10-12T11:48:51.826Z,57.38
2018-10-12T11:51:19.437Z,56.63
2018-10-12T11:53:47.084Z,57.35
2018-10-12T11:56:14.761Z,57.06
2018-10-12T11:58:42.345Z,57.28
2018-10-12T12:01:10.072Z,56.70
2018-10-12T12:03:37.637Z,57.28
2018-10-12T12:06:05.238Z,56.77
2018-10-12T12:08:32.929Z,56.52
2018-10-12T12:11:00.553Z,56.79
2018-10-12T12:13:28.193Z,57.83
2018-10-12T12:15:55.890Z,56.83
2018-10-12T12:18:23.580Z,56.57
2018-10-12T12:20:51.218Z,56.52
2018-10-12T12:23:18.824Z,56.91
2018-10-12T12:25:46.468Z,56.25
2018-10-12T12:28:14.201Z,56.22
2018-10-12T12:30:41.797Z,56.17
2018-10-12T12:33:09.597Z,56.36
2018-10-12T12:35:37.634Z,56.31
2018-10-12T12:38:05.127Z,56.50
2018-10-12T12:40:32.682Z,56.88
2018-10-12T12:43:00.282Z,57.01
